Terminal Aerodrome Forecast
Issued by NWS Amarillo, TX

Home | Current Version | Previous Version | Text Only | Print | Product List | Glossary On
Versions: 1 2 3 4 5 6 7 8 9 10 11 12 13 14
465
FTUS44 KAMA 261720
TAFGUY
TAF
KGUY 261720Z 2618/2718 25010KT P6SM BKN070
     FM270000 29009KT P6SM SCT070 BKN200
     FM270500 36008KT P6SM OVC100 PROB30 2705/2709 P6SM TS BKN050CB
     FM271000 36007KT P6SM -SHRA BKN050
     FM271500 34010KT P6SM -SHRA OVC050=

USA.gov is the U.S. government's official web portal to all federal, state and local government web resources and services.